Latest Weather Observations for Mackay Airport

IDQ60801

Issued at 10:32 am EST Friday 22 September 2017 (issued every 30 minutes, with the page automatically refreshed every 10 minutes)

About weather observations | Map of weather stations | Latest weather observations for QLD | Other Formats
Station Details ID: 033045 Name: MACKAY AERO Lat: -21.17 Lon: 149.18 Height: 4.7 m
Data from the previous 72 hours. | See also: Recent months at Mackay Airport
Date/Time
EST
Temp
°C
App
Temp
°C
Dew
Point
°C
Rel
Hum
%
Delta-T
°C
Wind Press
QNH
hPa
Press
MSL
hPa
Rain since
9am
mm
Dir  Spd
km/h
Gust
km/h
Spd
kts
Gust
kts
22/10:30am 25.0 25.0 18.9 69 3.9 ENE 17 20 9 11 1018.8 1018.8 0.0
22/10:00am 26.5 25.9 18.9 63 4.9 NE 20 26 11 14 1019.0 1019.0 0.0
22/09:30am 24.7 26.2 18.9 70 3.7 E 9 13 5 7 1019.1 1019.1 0.0
22/09:00am 24.7 26.6 18.9 70 3.7 N 7 11 4 6 1019.1 1019.1 0.0
22/08:30am 24.4 26.8 19.7 75 3.0 W 6 13 3 7 1019.0 1019.0 0.0
22/08:00am 22.1 23.7 19.1 83 1.9 NNE 9 13 5 7 1018.7 1018.7 0.0
22/07:30am 20.0 21.3 18.5 91 0.9 NNE 9 11 5 6 1018.2 1018.2 0.0
22/07:00am 18.3 19.7 17.8 97 0.3 NNE 7 11 4 6 1017.8 1017.8 0.0
22/06:30am 16.3 16.9 15.8 97 0.3 NNE 7 9 4 5 1017.4 1017.4 0.0
22/06:20am 15.9 16.5 15.4 97 0.3 NNE 6 7 3 4 1017.4 1017.4 0.0
22/06:00am 15.2 15.4 14.6 96 0.3 NNE 7 7 4 4 1017.2 1017.2 0.0
22/05:58am 15.4 15.6 14.8 96 0.3 NNE 7 9 4 5 1017.2 1017.2 0.0
22/05:30am 15.8 16.4 15.3 97 0.3 NNE 6 9 3 5 1016.6 1016.6 0.0
22/05:14am 15.6 15.9 15.0 96 0.3 NNE 7 11 4 6 1016.3 1016.3 0.0
22/05:05am 15.7 16.0 15.1 96 0.3 NNE 7 9 4 5 1016.2 1016.2 0.0
22/05:00am 15.9 16.3 15.3 96 0.3 NNE 7 9 4 5 1016.2 1016.2 0.0
22/04:44am 16.4 17.2 15.8 96 0.4 NNE 6 9 3 5 1016.2 1016.2 0.0
22/04:37am 16.6 17.3 16.0 96 0.4 NNE 7 9 4 5 1016.1 1016.1 0.0
22/04:30am 16.8 17.2 16.3 97 0.3 NNE 9 11 5 6 1016.0 1016.0 0.0
22/04:01am 16.1 16.5 15.3 95 0.5 NNE 7 9 4 5 1015.8 1015.8 0.0
22/04:00am 16.3 16.9 15.7 96 0.4 NNE 7 9 4 5 1015.8 1015.8 0.0
22/03:44am 16.4 16.9 15.6 95 0.5 NNE 7 9 4 5 1015.6 1015.6 0.0
22/03:30am 16.1 16.0 15.0 93 0.6 NNE 9 11 5 6 1015.6 1015.6 0.0
22/03:16am 17.0 18.7 16.2 95 0.5 NNE 2 9 1 5 1015.7 1015.7 0.0
22/03:00am 17.0 19.1 16.2 95 0.5 CALM 0 0 0 0 1015.7 1015.7 0.0
22/02:50am 16.9 18.9 16.1 95 0.5 CALM 0 0 0 0 1015.8 1015.8 0.0
22/02:48am 17.2 19.4 16.4 95 0.5 CALM 0 0 0 0 1015.8 1015.8 0.0
22/02:30am 17.6 20.0 17.0 96 0.4 CALM 0 0 0 0 1015.9 1015.9 0.0
22/02:00am 17.0 19.0 16.0 94 0.6 CALM 0 0 0 0 1016.3 1016.3 0.0
22/01:51am 17.4 19.2 16.4 94 0.6 NNE 2 6 1 3 1016.4 1016.4 0.0
22/01:30am 18.0 19.1 17.2 95 0.5 NNE 7 9 4 5 1016.6 1016.6 0.0
22/01:00am 17.9 18.5 16.9 94 0.6 NNE 9 9 5 5 1016.9 1016.9 0.0
22/12:30am 17.8 18.6 16.3 91 0.9 NNE 7 9 4 5 1017.0 1017.0 0.0
22/12:00am 18.4 19.7 17.1 92 0.8 NNE 6 7 3 4 1017.3 1017.3 0.0
 
Date/Time
EST
Temp
°C
App
Temp
°C
Dew
Point
°C
Rel
Hum
%
Delta-T
°C
Wind Press
QNH
hPa
Press
MSL
hPa
Rain since
9am
mm
Dir  Spd
km/h
Gust
km/h
Spd
kts
Gust
kts
21/11:30pm 18.9 20.4 17.6 92 0.8 NNE 6 7 3 4 1017.6 1017.6 0.0
21/11:00pm 19.6 21.4 18.3 92 0.8 NNE 6 7 3 4 1017.7 1017.7 0.0
21/10:30pm 20.4 22.3 18.5 89 1.2 NNE 6 7 3 4 1017.8 1017.8 0.0
21/10:00pm 20.3 22.0 18.1 87 1.4 NNE 6 7 3 4 1017.8 1017.8 0.0
21/09:30pm 21.2 22.9 18.4 84 1.7 NNE 7 9 4 5 1017.7 1017.7 0.0
21/09:00pm 21.7 23.4 18.5 82 2.0 NE 7 9 4 5 1017.6 1017.6 0.0
21/08:30pm 22.6 24.2 19.2 81 2.2 NE 9 13 5 7 1017.4 1017.4 0.0
21/08:00pm 22.6 23.9 19.2 81 2.2 NE 11 13 6 7 1017.1 1017.1 0.0
21/07:30pm 22.3 23.8 18.9 81 2.1 NE 9 11 5 6 1016.7 1016.7 0.0
21/07:00pm 22.7 24.0 19.3 81 2.2 NE 11 15 6 8 1016.3 1016.3 0.0
21/06:30pm 22.5 23.5 18.7 79 2.4 ENE 11 15 6 8 1016.0 1016.0 0.0
21/06:00pm 23.3 23.5 18.6 75 3.0 ENE 15 17 8 9 1015.7 1015.7 0.0
21/05:30pm 24.1 25.3 19.0 73 3.2 ENE 11 15 6 8 1015.7 1015.7 0.0
21/05:00pm 24.1 24.4 18.7 72 3.4 ENE 15 17 8 9 1015.1 1015.1 0.0
21/04:30pm 24.3 24.9 18.7 71 3.6 ENE 13 17 7 9 1014.9 1014.9 0.0
21/04:00pm 24.7 25.1 18.9 70 3.7 E 15 19 8 10 1014.8 1014.8 0.0
21/03:30pm 25.2 24.9 19.1 69 3.9 E 19 22 10 12 1014.8 1014.8 0.0
21/03:00pm 25.4 25.3 18.8 67 4.2 ENE 17 22 9 12 1015.0 1015.0 0.0
21/02:30pm 25.3 25.2 18.7 67 4.2 E 17 22 9 12 1015.2 1015.2 0.0
21/02:00pm 25.2 25.0 18.6 67 4.2 E 17 22 9 12 1015.6 1015.6 0.0
21/01:30pm 24.9 25.1 18.6 68 4.0 E 15 20 8 11 1016.0 1016.0 0.0
21/01:00pm 25.3 26.1 19.0 68 4.0 E 13 22 7 12 1016.3 1016.3 0.0
21/12:30pm 25.3 25.6 18.7 67 4.2 E 15 20 8 11 1016.6 1016.6 0.0
21/12:00pm 25.9 26.0 18.3 63 4.8 E 15 20 8 11 1017.0 1017.0 0.0
21/11:30am 26.3 25.5 17.9 60 5.3 ENE 19 24 10 13 1017.3 1017.3 0.0
21/11:00am 25.5 24.6 18.2 64 4.6 ENE 20 26 11 14 1017.6 1017.6 0.0
21/10:30am 25.6 24.8 19.3 68 4.0 E 22 30 12 16 1017.8 1017.8 0.0
21/10:00am 24.5 23.7 18.0 67 4.1 ENE 19 26 10 14 1017.7 1017.7 0.0
21/09:30am 25.4 26.3 18.3 65 4.5 NNW 11 19 6 10 1017.7 1017.7 0.0
21/09:00am 23.8 24.7 17.5 68 3.9 WNW 9 17 5 9 1017.8 1017.8 0.0
21/08:30am 22.7 23.2 17.4 72 3.3 W 11 15 6 8 1017.6 1017.6 0.0
21/08:00am 20.1 19.8 15.5 75 2.7 W 11 15 6 8 1017.6 1017.6 0.0
21/07:30am 18.1 17.5 14.6 80 2.0 WSW 11 17 6 9 1017.6 1017.6 0.0
21/07:00am 16.9 16.5 14.2 84 1.5 WSW 9 17 5 9 1017.0 1017.0 0.0
21/06:30am 15.6 14.7 13.8 89 1.0 W 11 13 6 7 1016.5 1016.5 0.0
21/06:00am 15.0 14.7 13.2 89 1.0 W 7 9 4 5 1016.2 1016.2 0.0
21/05:30am 14.6 14.4 13.0 90 0.9 W 6 7 3 4 1015.9 1015.9 0.0
21/05:00am 14.8 14.1 13.3 91 0.8 W 9 11 5 6 1015.6 1015.6 0.0
21/04:30am 14.8 14.8 13.5 92 0.7 WNW 6 7 3 4 1015.5 1015.5 0.0
21/04:00am 14.7 14.6 13.4 92 0.7 WNW 6 7 3 4 1015.4 1015.4 0.0
21/03:30am 14.9 15.7 13.6 92 0.7 WNW 2 7 1 4 1015.5 1015.5 0.0
21/03:00am 15.2 15.2 14.2 94 0.6 W 7 11 4 6 1015.5 1015.5 0.0
21/02:30am 15.7 15.3 14.2 91 0.9 WSW 9 15 5 8 1015.7 1015.7 0.0
21/02:00am 15.8 15.6 14.7 93 0.6 W 9 11 5 6 1015.9 1015.9 0.0
21/01:30am 16.1 16.4 15.1 94 0.6 W 7 11 4 6 1016.0 1016.0 0.0
21/01:00am 15.9 16.1 14.6 92 0.7 WNW 7 9 4 5 1016.3 1016.3 0.0
21/12:30am 16.7 17.5 15.9 95 0.5 WSW 6 9 3 5 1016.5 1016.5 0.0
21/12:00am 15.9 16.4 14.9 94 0.6 WSW 6 7 3 4 1016.5 1016.5 0.0
 
Date/Time
EST
Temp
°C
App
Temp
°C
Dew
Point
°C
Rel
Hum
%
Delta-T
°C
Wind Press
QNH
hPa
Press
MSL
hPa
Rain since
9am
mm
Dir  Spd
km/h
Gust
km/h
Spd
kts
Gust
kts
20/11:30pm 16.3 16.9 15.2 93 0.6 WSW 6 9 3 5 1016.8 1016.8 0.0
20/11:00pm 15.7 15.8 13.9 89 1.0 WSW 6 7 3 4 1016.8 1016.8 0.0
20/10:30pm 16.7 17.0 14.9 89 1.0 WSW 7 9 4 5 1016.7 1016.7 0.0
20/10:00pm 17.7 17.6 15.9 89 1.1 NNE 11 13 6 7 1016.8 1016.8 0.0
20/09:30pm 17.9 19.7 16.4 91 0.9 NNE 2 6 1 3 1016.9 1016.9 0.0
20/09:00pm 18.5 19.8 17.0 91 0.9 NNE 6 7 3 4 1016.9 1016.9 0.0
20/08:30pm 18.8 19.5 16.0 84 1.7 NNE 7 7 4 4 1016.9 1016.9 0.0
20/08:00pm 20.4 21.8 17.8 85 1.6 NNE 7 9 4 5 1016.6 1016.6 0.0
20/07:30pm 20.4 21.9 17.6 84 1.7 NNE 6 6 3 3 1016.4 1016.4 0.0
20/07:00pm 20.5 21.4 16.7 79 2.3 NNE 7 9 4 5 1016.1 1016.1 0.0
20/06:30pm 21.7 22.7 17.7 78 2.5 NE 9 13 5 7 1015.7 1015.7 0.0
20/06:00pm 22.5 22.7 17.6 74 3.0 NE 13 19 7 10 1015.4 1015.4 0.0
20/05:30pm 23.2 21.9 16.7 67 4.0 ENE 19 22 10 12 1015.0 1015.0 0.0
20/05:00pm 24.0 22.8 17.0 65 4.3 ENE 19 24 10 13 1014.8 1014.8 0.0
20/04:30pm 24.5 23.7 18.0 67 4.1 ENE 19 26 10 14 1014.7 1014.7 0.0
20/04:00pm 25.0 22.7 17.5 63 4.7 ENE 26 32 14 17 1014.5 1014.5 0.0
20/03:30pm 25.4 23.2 17.8 62 4.8 ENE 26 32 14 17 1014.4 1014.4 0.0
20/03:00pm 25.5 22.7 17.2 60 5.2 ENE 28 32 15 17 1014.6 1014.6 0.0
20/02:30pm 25.8 23.5 17.7 61 5.1 E 26 32 14 17 1014.8 1014.8 0.0
20/02:00pm 26.0 23.7 17.6 60 5.3 E 26 32 14 17 1014.9 1014.9 0.0
20/01:30pm 26.5 24.7 17.8 58 5.5 ENE 24 30 13 16 1015.3 1015.3 0.0
20/01:00pm 25.5 23.8 18.2 64 4.6 E 24 28 13 15 1015.7 1015.7 0.0
20/12:30pm 26.3 24.7 19.2 65 4.6 E 26 32 14 17 1015.9 1015.9 0.0
20/12:00pm 26.2 24.8 18.9 64 4.7 E 24 32 13 17 1016.4 1016.4 0.0
20/11:30am 26.0 24.8 19.2 66 4.4 E 24 30 13 16 1016.8 1016.8 0.0
20/11:00am 25.6 23.8 15.9 55 5.9 E 20 24 11 13 1017.5 1017.5 0.0
20/10:30am 25.5 24.7 16.1 56 5.7 E 15 20 8 11 1018.1 1018.1 0.0
20/10:00am 26.2 25.7 17.0 57 5.7 ESE 15 19 8 10 1018.5 1018.5 0.0
20/09:30am 25.9 26.9 17.8 61 5.1 ESE 9 17 5 9 1018.5 1018.5 0.0
20/09:00am 24.3 25.7 17.3 65 4.3 SW 6 9 3 5 1018.7 1018.7 0.0
20/08:30am 23.0 24.0 17.7 72 3.3 SW 9 11 5 6 1019.0 1019.0 0.0
20/08:00am 21.3 22.1 17.3 78 2.4 WSW 9 13 5 7 1018.8 1018.8 0.0
20/07:30am 19.0 19.7 17.0 88 1.2 WSW 9 11 5 6 1018.6 1018.6 0.0
20/07:00am 18.5 19.7 16.8 90 1.0 WSW 6 7 3 4 1018.1 1018.1 0.0
20/06:30am 17.8 18.2 16.3 91 0.9 WSW 9 11 5 6 1017.8 1017.8 0.0
20/06:00am 17.1 17.5 15.4 90 1.0 WSW 7 11 4 6 1017.5 1017.5 0.0
20/05:30am 18.2 18.3 16.4 89 1.1 W 11 15 6 8 1017.1 1017.1 0.0
20/05:00am 17.6 18.2 15.8 89 1.1 WSW 7 9 4 5 1017.2 1017.2 0.0
20/04:30am 17.9 18.6 16.1 89 1.1 WSW 7 11 4 6 1016.9 1016.9 0.0
20/04:00am 18.2 18.6 16.2 88 1.2 W 9 11 5 6 1016.7 1016.7 0.0
20/03:30am 17.9 18.7 15.9 88 1.2 W 6 9 3 5 1016.5 1016.5 0.0
20/03:00am 18.5 19.3 16.3 87 1.3 W 7 13 4 7 1016.5 1016.5 0.0
20/02:30am 18.8 19.0 16.8 88 1.2 W 11 15 6 8 1017.0 1017.0 0.0
20/02:00am 18.5 19.5 16.3 87 1.3 W 6 9 3 5 1016.8 1016.8 0.0
20/01:30am 18.4 18.8 16.2 87 1.3 WSW 9 13 5 7 1017.7 1017.7 0.0
20/01:00am 18.7 19.0 16.1 85 1.5 WSW 9 13 5 7 1017.3 1017.3 0.0
20/12:30am 18.9 19.7 16.3 85 1.6 SW 7 13 4 7 1017.4 1017.4 0.0
20/12:00am 19.0 19.8 16.4 85 1.6 SW 7 11 4 6 1018.2 1018.2 0.0
 
Date/Time
EST
Temp
°C
App
Temp
°C
Dew
Point
°C
Rel
Hum
%
Delta-T
°C
Wind Press
QNH
hPa
Press
MSL
hPa
Rain since
9am
mm
Dir  Spd
km/h
Gust
km/h
Spd
kts
Gust
kts
19/11:30pm 19.3 21.4 16.3 83 1.8 CALM 0 0 0 0 1018.2 1018.2 0.0
19/11:00pm 19.6 20.7 16.6 83 1.8 SW 6 11 3 6 1019.0 1019.0 0.0
19/10:30pm 19.7 20.6 16.5 82 1.9 SW 7 9 4 5 1019.4 1019.4 0.0
19/10:00pm 19.9 20.8 16.5 81 2.0 SW 7 9 4 5 1019.6 1019.6 0.0
19/09:30pm 19.8 19.3 16.8 83 1.8 SSW 15 17 8 9 1019.6 1019.6 0.0
19/09:00pm 20.0 20.8 16.4 80 2.2 E 7 11 4 6 1019.4 1019.4 0.0
19/08:30pm 21.0 22.0 16.8 77 2.6 E 7 9 4 5 1019.5 1019.5 0.0
19/08:00pm 21.8 22.9 17.2 75 2.8 E 7 11 4 6 1020.1 1020.1 0.0
19/07:30pm 22.0 22.1 17.4 75 2.8 E 13 17 7 9 1019.3 1019.3 0.0
19/07:00pm 22.1 21.9 17.5 75 2.8 E 15 20 8 11 1018.8 1018.8 0.0
19/06:30pm 22.1 21.7 17.2 74 3.0 ESE 15 20 8 11 1018.9 1018.9 0.0
19/06:00pm 22.1 21.9 16.8 72 3.2 ESE 13 17 7 9 1018.7 1018.7 0.0
19/05:30pm 22.4 21.8 16.7 70 3.5 ESE 15 19 8 10 1018.6 1018.6 0.0
19/05:00pm 22.6 22.4 16.6 69 3.7 ESE 13 19 7 10 1018.3 1018.3 0.0
19/04:30pm 22.8 22.0 17.0 70 3.6 ESE 17 22 9 12 1017.8 1017.8 0.0
19/04:00pm 23.1 21.7 16.6 67 4.0 E 19 24 10 13 1018.1 1018.1 0.0
19/03:30pm 23.5 21.6 16.8 66 4.1 E 22 26 12 14 1018.0 1018.0 0.0
19/03:00pm 23.7 21.9 17.0 66 4.1 E 22 28 12 15 1018.2 1018.2 0.0
19/02:30pm 24.2 23.2 17.9 68 3.9 ESE 20 24 11 13 1018.5 1018.5 0.0
19/02:00pm 23.8 22.7 17.8 69 3.7 ESE 20 28 11 15 1018.9 1018.9 0.0
19/01:30pm 24.5 23.2 17.2 63 4.5 ESE 20 26 11 14 1019.2 1019.2 0.0
19/01:00pm 23.8 21.7 16.1 62 4.7 ESE 22 28 12 15 1019.4 1019.4 0.0
19/12:30pm 25.4 23.5 16.8 59 5.3 ESE 22 28 12 15 1019.8 1019.8 0.0
19/12:00pm 24.8 23.1 16.2 58 5.2 ESE 20 24 11 13 1020.4 1020.4 0.0
19/11:30am 24.3 22.5 16.0 60 5.0 ESE 20 24 11 13 1020.8 1020.8 0.0
19/11:00am 24.3 22.5 16.0 60 5.0 ESE 20 26 11 14 1021.4 1021.4 0.0

Other Formats:

Comma delimited format used in spreadsheet applications
http://www.bom.gov.au/fwo/IDQ60801/IDQ60801.95367.axf

JavaScript Object Notation format (JSON) in row-major order
http://www.bom.gov.au/fwo/IDQ60801/IDQ60801.95367.json